KPKV

Details ICAO KPKV
Name CALHOUN CO
Region United States
Timezone America/Chicago (UTC-6.0)
Plans Departing 1
Arriving 1
Stats Elevation 30 ft / 9 m (AMSL)
Location 28.652572° -96.683674°
Runways 2
Magnetic Variation 3.272° E
Sunrise 2017-12-16 13:14:10 UTC / 2017-12-16 07:14:10 Local
Sunset 2017-12-16 23:33:36 UTC / 2017-12-16 17:33:36 Local
Advertisement - Login to hide

Runways

ID Width Length Bearing (true) Bearing (mag) Surface Threshold Offset Overrun Length
05 60 ft / 18 m 2,700 ft / 823 m 54.83° 51.56° Grass 0 ft / 0 m 0 ft / 0 m
14 75 ft / 23 m 5,014 ft / 1,528 m 144.58° 141.31° Asphalt 0 ft / 0 m 0 ft / 0 m
23 60 ft / 18 m 2,700 ft / 823 m 234.84° 231.57° Grass 0 ft / 0 m 0 ft / 0 m
32 75 ft / 23 m 5,014 ft / 1,528 m 324.58° 321.31° Asphalt 0 ft / 0 m 0 ft / 0 m

Map

Weather


0- 5 10 15 20 25 30 35+ Temperature / ° C

Clouds and Precipitation
Forecast for 2017-12-16 18:00 UTC. Updated 2 minutes ago

Ground ~20,000 ft ~40,000 ft Winds

METAR

KPKV 161515Z AUTO 06008KT 10SM OVC060 11/05 A3019 RMK AO2 T01060053

TAF

Not found

Frequencies

Recorded 118.27 MHz AWOS 3
Unicom 122.80 MHz CTAF/UNICOM
Warning: Do not use this data for real-world aviation or navigation. No guarantee of current accuracy is given.